sensor_id;sensor_type;location;lat;lon;timestamp;temperature;humidity
53643;DHT22;39546;45.534;12.048;2023-05-16T00:05:41;19.00;80.10
53643;DHT22;39546;45.534;12.048;2023-05-16T00:11:43;19.00;80.00
53643;DHT22;39546;45.534;12.048;2023-05-16T00:17:45;19.00;80.50
53643;DHT22;39546;45.534;12.048;2023-05-16T00:23:47;19.00;80.50
53643;DHT22;39546;45.534;12.048;2023-05-16T00:29:49;19.00;80.50
53643;DHT22;39546;45.534;12.048;2023-05-16T00:35:52;19.00;80.50
53643;DHT22;39546;45.534;12.048;2023-05-16T00:41:54;18.90;80.30
53643;DHT22;39546;45.534;12.048;2023-05-16T00:47:57;18.90;80.40
53643;DHT22;39546;45.534;12.048;2023-05-16T00:53:59;18.80;80.30
53643;DHT22;39546;45.534;12.048;2023-05-16T01:00:01;18.80;80.30
53643;DHT22;39546;45.534;12.048;2023-05-16T01:06:03;18.80;80.50
53643;DHT22;39546;45.534;12.048;2023-05-16T01:12:14;18.80;80.80
53643;DHT22;39546;45.534;12.048;2023-05-16T01:18:28;18.70;80.40
53643;DHT22;39546;45.534;12.048;2023-05-16T01:25:06;18.60;80.50
53643;DHT22;39546;45.534;12.048;2023-05-16T01:31:00;18.60;80.20
53643;DHT22;39546;45.534;12.048;2023-05-16T01:43:32;18.50;80.90
53643;DHT22;39546;45.534;12.048;2023-05-16T01:49:40;18.50;80.30
53643;DHT22;39546;45.534;12.048;2023-05-16T01:55:48;18.50;79.80
53643;DHT22;39546;45.534;12.048;2023-05-16T02:01:56;18.50;79.80
53643;DHT22;39546;45.534;12.048;2023-05-16T02:07:59;18.50;79.00
53643;DHT22;39546;45.534;12.048;2023-05-16T02:14:01;18.40;78.60
53643;DHT22;39546;45.534;12.048;2023-05-16T02:20:04;18.40;78.10
53643;DHT22;39546;45.534;12.048;2023-05-16T02:26:08;18.20;79.10
53643;DHT22;39546;45.534;12.048;2023-05-16T02:32:10;18.20;79.10
53643;DHT22;39546;45.534;12.048;2023-05-16T02:38:13;18.00;78.80
53643;DHT22;39546;45.534;12.048;2023-05-16T02:44:18;18.00;79.10
53643;DHT22;39546;45.534;12.048;2023-05-16T02:50:20;17.80;79.40
53643;DHT22;39546;45.534;12.048;2023-05-16T02:56:22;17.70;79.80
53643;DHT22;39546;45.534;12.048;2023-05-16T03:02:24;17.60;80.10
53643;DHT22;39546;45.534;12.048;2023-05-16T03:08:26;17.60;80.40
53643;DHT22;39546;45.534;12.048;2023-05-16T03:14:27;17.50;80.50
53643;DHT22;39546;45.534;12.048;2023-05-16T03:20:29;17.50;81.00
53643;DHT22;39546;45.534;12.048;2023-05-16T03:26:31;17.50;81.30
53643;DHT22;39546;45.534;12.048;2023-05-16T03:32:33;17.60;81.80
53643;DHT22;39546;45.534;12.048;2023-05-16T03:38:36;17.70;82.00
53643;DHT22;39546;45.534;12.048;2023-05-16T03:44:38;17.80;82.00
53643;DHT22;39546;45.534;12.048;2023-05-16T03:50:40;17.80;81.90
53643;DHT22;39546;45.534;12.048;2023-05-16T03:56:42;17.70;82.00
53643;DHT22;39546;45.534;12.048;2023-05-16T04:02:44;17.70;82.20
53643;DHT22;39546;45.534;12.048;2023-05-16T04:08:46;17.80;82.10
53643;DHT22;39546;45.534;12.048;2023-05-16T04:15:11;17.80;81.90
53643;DHT22;39546;45.534;12.048;2023-05-16T04:21:12;17.80;82.10
53643;DHT22;39546;45.534;12.048;2023-05-16T04:27:16;17.80;82.10
53643;DHT22;39546;45.534;12.048;2023-05-16T04:33:18;17.80;82.20
53643;DHT22;39546;45.534;12.048;2023-05-16T04:39:20;17.80;82.40
53643;DHT22;39546;45.534;12.048;2023-05-16T04:45:22;17.80;82.60
53643;DHT22;39546;45.534;12.048;2023-05-16T04:51:23;17.70;82.60
53643;DHT22;39546;45.534;12.048;2023-05-16T04:57:27;17.70;82.60
53643;DHT22;39546;45.534;12.048;2023-05-16T05:03:29;17.70;82.70
53643;DHT22;39546;45.534;12.048;2023-05-16T05:09:31;17.70;82.80
53643;DHT22;39546;45.534;12.048;2023-05-16T05:15:33;17.70;82.90
53643;DHT22;39546;45.534;12.048;2023-05-16T05:21:35;17.70;83.00
53643;DHT22;39546;45.534;12.048;2023-05-16T05:27:36;17.70;82.80
53643;DHT22;39546;45.534;12.048;2023-05-16T05:33:38;17.70;82.70
53643;DHT22;39546;45.534;12.048;2023-05-16T05:39:41;17.70;82.90
53643;DHT22;39546;45.534;12.048;2023-05-16T05:45:43;17.50;83.10
53643;DHT22;39546;45.534;12.048;2023-05-16T05:51:46;17.50;83.40
53643;DHT22;39546;45.534;12.048;2023-05-16T05:57:48;17.50;83.40
53643;DHT22;39546;45.534;12.048;2023-05-16T06:03:50;17.50;83.20
53643;DHT22;39546;45.534;12.048;2023-05-16T06:09:52;17.40;83.00
53643;DHT22;39546;45.534;12.048;2023-05-16T06:15:55;17.30;82.60
53643;DHT22;39546;45.534;12.048;2023-05-16T06:21:57;17.30;82.30
53643;DHT22;39546;45.534;12.048;2023-05-16T06:27:59;17.10;81.70
53643;DHT22;39546;45.534;12.048;2023-05-16T06:34:01;16.90;81.70
53643;DHT22;39546;45.534;12.048;2023-05-16T06:40:04;16.70;82.00
53643;DHT22;39546;45.534;12.048;2023-05-16T06:46:06;16.60;82.50
53643;DHT22;39546;45.534;12.048;2023-05-16T06:52:08;16.50;83.10
53643;DHT22;39546;45.534;12.048;2023-05-16T06:58:11;16.50;83.60
53643;DHT22;39546;45.534;12.048;2023-05-16T07:04:13;16.40;83.70
53643;DHT22;39546;45.534;12.048;2023-05-16T07:10:16;16.40;83.70
53643;DHT22;39546;45.534;12.048;2023-05-16T07:16:18;16.50;83.80
53643;DHT22;39546;45.534;12.048;2023-05-16T07:22:20;16.50;84.20
53643;DHT22;39546;45.534;12.048;2023-05-16T07:28:22;16.50;84.60
53643;DHT22;39546;45.534;12.048;2023-05-16T07:34:24;16.50;84.90
53643;DHT22;39546;45.534;12.048;2023-05-16T07:40:27;16.60;85.10
53643;DHT22;39546;45.534;12.048;2023-05-16T07:46:30;16.60;85.00
53643;DHT22;39546;45.534;12.048;2023-05-16T07:52:32;16.60;85.20
53643;DHT22;39546;45.534;12.048;2023-05-16T07:58:34;16.60;85.00
53643;DHT22;39546;45.534;12.048;2023-05-16T08:04:36;16.60;85.10
53643;DHT22;39546;45.534;12.048;2023-05-16T08:10:38;16.70;85.00
53643;DHT22;39546;45.534;12.048;2023-05-16T08:16:41;16.80;84.90
53643;DHT22;39546;45.534;12.048;2023-05-16T08:22:43;16.90;84.60
53643;DHT22;39546;45.534;12.048;2023-05-16T08:28:45;17.10;84.50
53643;DHT22;39546;45.534;12.048;2023-05-16T08:34:47;17.20;84.60
53643;DHT22;39546;45.534;12.048;2023-05-16T08:40:49;17.30;84.70
53643;DHT22;39546;45.534;12.048;2023-05-16T08:46:52;17.30;84.80
53643;DHT22;39546;45.534;12.048;2023-05-16T08:52:56;17.30;84.90
53643;DHT22;39546;45.534;12.048;2023-05-16T08:58:58;17.30;85.00
53643;DHT22;39546;45.534;12.048;2023-05-16T09:05:02;17.50;85.00
53643;DHT22;39546;45.534;12.048;2023-05-16T09:11:05;17.60;85.00
53643;DHT22;39546;45.534;12.048;2023-05-16T09:17:08;17.50;84.90
53643;DHT22;39546;45.534;12.048;2023-05-16T09:23:10;17.50;84.90
53643;DHT22;39546;45.534;12.048;2023-05-16T09:35:59;17.60;84.50
53643;DHT22;39546;45.534;12.048;2023-05-16T09:42:03;17.60;84.30
53643;DHT22;39546;45.534;12.048;2023-05-16T09:48:10;17.70;84.20
53643;DHT22;39546;45.534;12.048;2023-05-16T09:54:15;17.70;84.20
53643;DHT22;39546;45.534;12.048;2023-05-16T10:00:17;17.70;84.50
53643;DHT22;39546;45.534;12.048;2023-05-16T10:06:20;17.60;84.50
53643;DHT22;39546;45.534;12.048;2023-05-16T10:12:29;17.60;84.60
53643;DHT22;39546;45.534;12.048;2023-05-16T10:18:37;17.50;84.40
53643;DHT22;39546;45.534;12.048;2023-05-16T10:24:47;17.50;84.60
53643;DHT22;39546;45.534;12.048;2023-05-16T10:30:58;17.50;84.50
53643;DHT22;39546;45.534;12.048;2023-05-16T10:37:04;17.50;84.40
53643;DHT22;39546;45.534;12.048;2023-05-16T10:43:07;17.50;84.30
53643;DHT22;39546;45.534;12.048;2023-05-16T10:49:41;17.40;84.20
53643;DHT22;39546;45.534;12.048;2023-05-16T11:02:02;17.50;84.10
53643;DHT22;39546;45.534;12.048;2023-05-16T11:08:10;17.60;84.10
53643;DHT22;39546;45.534;12.048;2023-05-16T11:14:42;17.80;83.90
53643;DHT22;39546;45.534;12.048;2023-05-16T11:20:44;17.80;83.70
53643;DHT22;39546;45.534;12.048;2023-05-16T11:26:48;17.80;83.50
53643;DHT22;39546;45.534;12.048;2023-05-16T11:32:54;17.80;83.30
53643;DHT22;39546;45.534;12.048;2023-05-16T11:39:30;17.90;83.30
53643;DHT22;39546;45.534;12.048;2023-05-16T11:45:34;18.00;83.20
53643;DHT22;39546;45.534;12.048;2023-05-16T11:51:43;18.00;83.00
53643;DHT22;39546;45.534;12.048;2023-05-16T11:58:13;18.00;82.90
53643;DHT22;39546;45.534;12.048;2023-05-16T12:04:45;18.00;83.30
53643;DHT22;39546;45.534;12.048;2023-05-16T12:10:49;18.00;83.60
53643;DHT22;39546;45.534;12.048;2023-05-16T12:16:52;18.10;83.80
53643;DHT22;39546;45.534;12.048;2023-05-16T12:23:12;18.20;84.60
53643;DHT22;39546;45.534;12.048;2023-05-16T12:29:20;18.20;84.50
53643;DHT22;39546;45.534;12.048;2023-05-16T12:35:32;18.30;84.70
53643;DHT22;39546;45.534;12.048;2023-05-16T12:41:40;18.40;84.70
53643;DHT22;39546;45.534;12.048;2023-05-16T12:47:44;18.50;84.60
53643;DHT22;39546;45.534;12.048;2023-05-16T12:53:48;18.50;84.70
53643;DHT22;39546;45.534;12.048;2023-05-16T12:59:50;18.50;84.90
53643;DHT22;39546;45.534;12.048;2023-05-16T13:05:52;18.50;84.80
53643;DHT22;39546;45.534;12.048;2023-05-16T13:12:06;18.50;84.90
53643;DHT22;39546;45.534;12.048;2023-05-16T13:18:14;18.60;84.40
53643;DHT22;39546;45.534;12.048;2023-05-16T13:24:28;18.70;84.10
53643;DHT22;39546;45.534;12.048;2023-05-16T13:30:51;18.80;84.40
53643;DHT22;39546;45.534;12.048;2023-05-16T13:36:54;18.80;84.00
53643;DHT22;39546;45.534;12.048;2023-05-16T13:42:56;18.80;82.80
53643;DHT22;39546;45.534;12.048;2023-05-16T13:48:58;18.70;83.10
53643;DHT22;39546;45.534;12.048;2023-05-16T13:55:01;18.70;82.30
53643;DHT22;39546;45.534;12.048;2023-05-16T14:01:04;18.70;82.60
53643;DHT22;39546;45.534;12.048;2023-05-16T14:07:06;18.70;82.70
53643;DHT22;39546;45.534;12.048;2023-05-16T14:13:08;18.60;82.50
53643;DHT22;39546;45.534;12.048;2023-05-16T14:19:11;18.50;81.80
53643;DHT22;39546;45.534;12.048;2023-05-16T14:25:14;18.50;81.70
53643;DHT22;39546;45.534;12.048;2023-05-16T14:31:16;18.50;81.60
53643;DHT22;39546;45.534;12.048;2023-05-16T14:37:18;18.50;81.70
53643;DHT22;39546;45.534;12.048;2023-05-16T14:43:21;18.40;81.70
53643;DHT22;39546;45.534;12.048;2023-05-16T14:49:24;18.30;82.30
53643;DHT22;39546;45.534;12.048;2023-05-16T14:55:27;18.30;82.40
53643;DHT22;39546;45.534;12.048;2023-05-16T15:01:32;18.30;82.30
53643;DHT22;39546;45.534;12.048;2023-05-16T15:08:25;18.20;82.60
53643;DHT22;39546;45.534;12.048;2023-05-16T15:14:29;18.10;82.70
53643;DHT22;39546;45.534;12.048;2023-05-16T15:20:40;18.00;82.60
53643;DHT22;39546;45.534;12.048;2023-05-16T15:26:43;18.00;82.80
53643;DHT22;39546;45.534;12.048;2023-05-16T15:33:18;17.90;82.60
53643;DHT22;39546;45.534;12.048;2023-05-16T15:39:27;17.90;83.00
53643;DHT22;39546;45.534;12.048;2023-05-16T15:45:29;17.80;82.70
53643;DHT22;39546;45.534;12.048;2023-05-16T15:51:35;17.70;82.60
53643;DHT22;39546;45.534;12.048;2023-05-16T15:57:37;17.60;82.60
53643;DHT22;39546;45.534;12.048;2023-05-16T16:03:40;17.50;82.50
53643;DHT22;39546;45.534;12.048;2023-05-16T16:09:43;17.30;82.90
53643;DHT22;39546;45.534;12.048;2023-05-16T16:16:14;17.20;83.30
53643;DHT22;39546;45.534;12.048;2023-05-16T16:22:44;17.20;83.50
53643;DHT22;39546;45.534;12.048;2023-05-16T16:28:48;17.10;83.40
53643;DHT22;39546;45.534;12.048;2023-05-16T16:34:54;17.00;84.10
53643;DHT22;39546;45.534;12.048;2023-05-16T16:41:03;16.90;84.40
53643;DHT22;39546;45.534;12.048;2023-05-16T16:47:05;16.90;84.60
53643;DHT22;39546;45.534;12.048;2023-05-16T16:53:25;16.90;84.90
53643;DHT22;39546;45.534;12.048;2023-05-16T17:00:13;16.90;84.90
53643;DHT22;39546;45.534;12.048;2023-05-16T17:06:16;17.00;85.00
53643;DHT22;39546;45.534;12.048;2023-05-16T17:12:22;17.10;84.80
53643;DHT22;39546;45.534;12.048;2023-05-16T17:18:52;17.20;84.60
53643;DHT22;39546;45.534;12.048;2023-05-16T17:24:54;17.20;84.50
53643;DHT22;39546;45.534;12.048;2023-05-16T17:31:23;17.20;84.40
53643;DHT22;39546;45.534;12.048;2023-05-16T17:37:25;17.10;84.30
53643;DHT22;39546;45.534;12.048;2023-05-16T17:43:28;17.20;84.30
53643;DHT22;39546;45.534;12.048;2023-05-16T17:49:31;17.20;84.30
53643;DHT22;39546;45.534;12.048;2023-05-16T17:55:33;17.20;84.20
53643;DHT22;39546;45.534;12.048;2023-05-16T18:01:35;17.20;84.20
53643;DHT22;39546;45.534;12.048;2023-05-16T18:07:37;17.10;84.10
53643;DHT22;39546;45.534;12.048;2023-05-16T18:13:39;17.10;84.20
53643;DHT22;39546;45.534;12.048;2023-05-16T18:19:41;17.10;84.20
53643;DHT22;39546;45.534;12.048;2023-05-16T18:25:43;17.00;84.20
53643;DHT22;39546;45.534;12.048;2023-05-16T18:31:45;17.00;84.20
53643;DHT22;39546;45.534;12.048;2023-05-16T18:37:47;17.10;84.10
53643;DHT22;39546;45.534;12.048;2023-05-16T18:43:49;17.10;84.20
53643;DHT22;39546;45.534;12.048;2023-05-16T18:49:51;17.10;84.30
53643;DHT22;39546;45.534;12.048;2023-05-16T18:55:53;17.10;84.20
53643;DHT22;39546;45.534;12.048;2023-05-16T19:01:56;17.10;84.30
53643;DHT22;39546;45.534;12.048;2023-05-16T19:07:58;17.00;84.20
53643;DHT22;39546;45.534;12.048;2023-05-16T19:14:00;16.90;84.30
53643;DHT22;39546;45.534;12.048;2023-05-16T19:20:03;16.80;84.30
53643;DHT22;39546;45.534;12.048;2023-05-16T19:26:05;16.80;84.40
53643;DHT22;39546;45.534;12.048;2023-05-16T19:32:07;16.70;84.30
53643;DHT22;39546;45.534;12.048;2023-05-16T19:38:09;16.60;84.40
53643;DHT22;39546;45.534;12.048;2023-05-16T19:44:11;16.60;84.50
53643;DHT22;39546;45.534;12.048;2023-05-16T19:50:13;16.60;84.40
53643;DHT22;39546;45.534;12.048;2023-05-16T19:56:15;16.70;84.40
53643;DHT22;39546;45.534;12.048;2023-05-16T20:02:18;16.70;84.40
53643;DHT22;39546;45.534;12.048;2023-05-16T20:08:20;16.70;84.50
53643;DHT22;39546;45.534;12.048;2023-05-16T20:14:22;16.70;84.50
53643;DHT22;39546;45.534;12.048;2023-05-16T20:20:24;16.70;84.50
53643;DHT22;39546;45.534;12.048;2023-05-16T20:26:26;16.70;84.40
53643;DHT22;39546;45.534;12.048;2023-05-16T20:32:28;16.70;84.40
53643;DHT22;39546;45.534;12.048;2023-05-16T20:38:30;16.70;84.50
53643;DHT22;39546;45.534;12.048;2023-05-16T20:44:33;16.70;84.30
53643;DHT22;39546;45.534;12.048;2023-05-16T20:50:34;16.80;84.30
53643;DHT22;39546;45.534;12.048;2023-05-16T20:56:37;16.70;84.40
53643;DHT22;39546;45.534;12.048;2023-05-16T21:02:39;16.60;84.30
53643;DHT22;39546;45.534;12.048;2023-05-16T21:08:41;16.40;84.50
53643;DHT22;39546;45.534;12.048;2023-05-16T21:14:43;16.50;84.50
53643;DHT22;39546;45.534;12.048;2023-05-16T21:20:47;16.40;84.50
53643;DHT22;39546;45.534;12.048;2023-05-16T21:26:49;16.50;84.50
53643;DHT22;39546;45.534;12.048;2023-05-16T21:32:51;16.50;84.50
53643;DHT22;39546;45.534;12.048;2023-05-16T21:38:53;16.50;84.50
53643;DHT22;39546;45.534;12.048;2023-05-16T21:44:55;16.50;84.50
53643;DHT22;39546;45.534;12.048;2023-05-16T21:50:58;16.60;84.60
53643;DHT22;39546;45.534;12.048;2023-05-16T21:57:00;16.60;84.50
53643;DHT22;39546;45.534;12.048;2023-05-16T22:03:02;16.50;84.50
53643;DHT22;39546;45.534;12.048;2023-05-16T22:09:05;16.60;84.70
53643;DHT22;39546;45.534;12.048;2023-05-16T22:15:10;16.60;84.80
53643;DHT22;39546;45.534;12.048;2023-05-16T22:21:16;16.50;84.70
53643;DHT22;39546;45.534;12.048;2023-05-16T22:27:18;16.50;84.80
53643;DHT22;39546;45.534;12.048;2023-05-16T22:33:21;16.50;85.00
53643;DHT22;39546;45.534;12.048;2023-05-16T22:39:28;16.50;85.00
53643;DHT22;39546;45.534;12.048;2023-05-16T22:45:30;16.50;85.00
53643;DHT22;39546;45.534;12.048;2023-05-16T22:51:32;16.50;84.90
53643;DHT22;39546;45.534;12.048;2023-05-16T22:57:34;16.40;84.80
53643;DHT22;39546;45.534;12.048;2023-05-16T23:03:36;16.40;84.90
53643;DHT22;39546;45.534;12.048;2023-05-16T23:09:38;16.40;84.90
53643;DHT22;39546;45.534;12.048;2023-05-16T23:15:40;16.40;84.90
53643;DHT22;39546;45.534;12.048;2023-05-16T23:21:57;16.40;84.80
53643;DHT22;39546;45.534;12.048;2023-05-16T23:28:17;16.40;84.80
53643;DHT22;39546;45.534;12.048;2023-05-16T23:34:20;16.40;85.00
53643;DHT22;39546;45.534;12.048;2023-05-16T23:40:22;16.40;85.00
53643;DHT22;39546;45.534;12.048;2023-05-16T23:46:24;16.30;85.30
53643;DHT22;39546;45.534;12.048;2023-05-16T23:52:27;16.30;85.20
53643;DHT22;39546;45.534;12.048;2023-05-16T23:58:29;16.30;85.20
